Matagami Airport

CYNM | YNM

Matagami , Quebec , Canada

Sunday, June 7th, 2020 | 00:54

Weather

CYNM 070400Z AUTO 34012G17KT 9SM OVC014 04/02 A3012 RMK SLP213

Charts

No Charts Available

Gates

No Gates Available

Runways

1 Available

Active ATC

Events -Coming Soon-

1 Events Coming Up Soon

Next event:
CYNM Flyout